sensor_id;sensor_type;location;lat;lon;timestamp;pressure;altitude;pressure_sealevel;temperature;humidity
64298;BME280;50639;53.270;7.956;2024-02-21T00:00:23;101837.38;;;9.47;96.79
64298;BME280;50639;53.270;7.956;2024-02-21T00:02:50;101832.06;;;9.50;96.67
64298;BME280;50639;53.270;7.956;2024-02-21T00:05:15;101836.53;;;9.47;97.19
64298;BME280;50639;53.270;7.956;2024-02-21T00:07:41;101828.75;;;9.47;96.85
64298;BME280;50639;53.270;7.956;2024-02-21T00:10:07;101842.41;;;9.50;96.88
64298;BME280;50639;53.270;7.956;2024-02-21T00:12:33;101826.22;;;9.45;96.75
64298;BME280;50639;53.270;7.956;2024-02-21T00:14:58;101830.47;;;9.48;96.49
64298;BME280;50639;53.270;7.956;2024-02-21T00:17:23;101830.25;;;9.52;96.91
64298;BME280;50639;53.270;7.956;2024-02-21T00:19:51;101842.03;;;9.59;96.33
64298;BME280;50639;53.270;7.956;2024-02-21T00:22:17;101820.13;;;9.48;96.39
64298;BME280;50639;53.270;7.956;2024-02-21T00:24:42;101824.50;;;9.46;96.88
64298;BME280;50639;53.270;7.956;2024-02-21T00:27:08;101821.84;;;9.47;96.95
64298;BME280;50639;53.270;7.956;2024-02-21T00:29:33;101825.88;;;9.54;96.68
64298;BME280;50639;53.270;7.956;2024-02-21T00:31:59;101827.50;;;9.57;96.37
64298;BME280;50639;53.270;7.956;2024-02-21T00:34:25;101825.09;;;9.52;96.44
64298;BME280;50639;53.270;7.956;2024-02-21T00:36:50;101821.53;;;9.55;96.27
64298;BME280;50639;53.270;7.956;2024-02-21T00:39:16;101818.91;;;9.56;96.40
64298;BME280;50639;53.270;7.956;2024-02-21T00:41:42;101816.31;;;9.56;96.05
64298;BME280;50639;53.270;7.956;2024-02-21T00:44:08;101811.84;;;9.60;96.31
64298;BME280;50639;53.270;7.956;2024-02-21T00:46:35;101807.81;;;9.53;96.51
64298;BME280;50639;53.270;7.956;2024-02-21T00:49:00;101807.56;;;9.59;96.04
64298;BME280;50639;53.270;7.956;2024-02-21T00:51:25;101792.31;;;9.53;96.27
64298;BME280;50639;53.270;7.956;2024-02-21T00:53:51;101782.81;;;9.53;96.10
64298;BME280;50639;53.270;7.956;2024-02-21T00:56:16;101785.22;;;9.58;96.39
64298;BME280;50639;53.270;7.956;2024-02-21T00:58:41;101781.00;;;9.55;95.91
64298;BME280;50639;53.270;7.956;2024-02-21T01:01:07;101784.28;;;9.59;96.38
64298;BME280;50639;53.270;7.956;2024-02-21T01:03:32;101786.81;;;9.60;96.21
64298;BME280;50639;53.270;7.956;2024-02-21T01:05:58;101777.47;;;9.58;96.26
64298;BME280;50639;53.270;7.956;2024-02-21T01:08:23;101762.06;;;9.55;95.95
64298;BME280;50639;53.270;7.956;2024-02-21T01:10:49;101735.47;;;9.51;96.26
64298;BME280;50639;53.270;7.956;2024-02-21T01:13:14;101721.59;;;9.54;96.07
64298;BME280;50639;53.270;7.956;2024-02-21T01:15:40;101716.53;;;9.51;95.89
64298;BME280;50639;53.270;7.956;2024-02-21T01:18:05;101688.34;;;9.44;96.22
64298;BME280;50639;53.270;7.956;2024-02-21T01:20:31;101706.66;;;9.40;96.21
64298;BME280;50639;53.270;7.956;2024-02-21T01:22:57;101688.56;;;9.40;96.35
64298;BME280;50639;53.270;7.956;2024-02-21T01:25:23;101703.34;;;9.36;96.75
64298;BME280;50639;53.270;7.956;2024-02-21T01:27:48;101692.38;;;9.31;96.63
64298;BME280;50639;53.270;7.956;2024-02-21T01:30:14;101699.91;;;9.36;96.94
64298;BME280;50639;53.270;7.956;2024-02-21T01:32:39;101691.91;;;9.42;96.56
64298;BME280;50639;53.270;7.956;2024-02-21T01:35:05;101694.69;;;9.37;96.72
64298;BME280;50639;53.270;7.956;2024-02-21T01:37:30;101687.72;;;9.39;96.71
64298;BME280;50639;53.270;7.956;2024-02-21T01:39:56;101694.41;;;9.43;96.94
64298;BME280;50639;53.270;7.956;2024-02-21T01:42:21;101694.25;;;9.48;96.83
64298;BME280;50639;53.270;7.956;2024-02-21T01:44:49;101702.31;;;9.40;96.82
64298;BME280;50639;53.270;7.956;2024-02-21T01:47:14;101685.19;;;9.38;97.01
64298;BME280;50639;53.270;7.956;2024-02-21T01:49:41;101681.63;;;9.40;96.90
64298;BME280;50639;53.270;7.956;2024-02-21T01:52:07;101687.56;;;9.42;96.93
64298;BME280;50639;53.270;7.956;2024-02-21T01:54:34;101678.72;;;9.48;96.88
64298;BME280;50639;53.270;7.956;2024-02-21T01:57:01;101683.19;;;9.44;96.87
64298;BME280;50639;53.270;7.956;2024-02-21T01:59:26;101684.59;;;9.52;96.48
64298;BME280;50639;53.270;7.956;2024-02-21T02:01:52;101695.72;;;9.54;96.54
64298;BME280;50639;53.270;7.956;2024-02-21T02:04:20;101690.63;;;9.52;96.65
64298;BME280;50639;53.270;7.956;2024-02-21T02:06:46;101681.63;;;9.61;96.66
64298;BME280;50639;53.270;7.956;2024-02-21T02:09:11;101688.75;;;9.56;96.46
64298;BME280;50639;53.270;7.956;2024-02-21T02:11:37;101687.25;;;9.50;96.28
64298;BME280;50639;53.270;7.956;2024-02-21T02:14:02;101697.41;;;9.55;96.49
64298;BME280;50639;53.270;7.956;2024-02-21T02:16:28;101684.41;;;9.56;96.61
64298;BME280;50639;53.270;7.956;2024-02-21T02:18:53;101688.88;;;9.53;96.39
64298;BME280;50639;53.270;7.956;2024-02-21T02:23:50;101684.47;;;9.55;96.54
64298;BME280;50639;53.270;7.956;2024-02-21T02:26:16;101689.66;;;9.55;96.46
64298;BME280;50639;53.270;7.956;2024-02-21T02:28:41;101677.75;;;9.51;96.91
64298;BME280;50639;53.270;7.956;2024-02-21T02:31:07;101677.94;;;9.46;96.85
64298;BME280;50639;53.270;7.956;2024-02-21T02:33:32;101659.78;;;9.48;96.99
64298;BME280;50639;53.270;7.956;2024-02-21T02:35:58;101674.25;;;9.52;96.97
64298;BME280;50639;53.270;7.956;2024-02-21T02:38:24;101677.94;;;9.46;96.68
64298;BME280;50639;53.270;7.956;2024-02-21T02:40:49;101667.34;;;9.52;97.05
64298;BME280;50639;53.270;7.956;2024-02-21T02:43:14;101672.56;;;9.51;96.99
64298;BME280;50639;53.270;7.956;2024-02-21T02:45:40;101667.59;;;9.46;97.91
64298;BME280;50639;53.270;7.956;2024-02-21T02:48:06;101667.03;;;9.39;98.44
64298;BME280;50639;53.270;7.956;2024-02-21T02:50:31;101658.22;;;9.43;98.60
64298;BME280;50639;53.270;7.956;2024-02-21T02:52:57;101670.00;;;9.30;99.42
64298;BME280;50639;53.270;7.956;2024-02-21T02:55:22;101669.09;;;9.31;100.00
64298;BME280;50639;53.270;7.956;2024-02-21T02:57:48;101659.00;;;9.25;100.00
64298;BME280;50639;53.270;7.956;2024-02-21T03:00:14;101659.97;;;9.23;100.00
64298;BME280;50639;53.270;7.956;2024-02-21T03:02:41;101660.47;;;9.11;100.00
64298;BME280;50639;53.270;7.956;2024-02-21T03:05:18;101667.38;;;9.10;100.00
64298;BME280;50639;53.270;7.956;2024-02-21T03:07:44;101673.50;;;9.07;100.00
64298;BME280;50639;53.270;7.956;2024-02-21T03:10:11;101658.06;;;9.06;100.00
64298;BME280;50639;53.270;7.956;2024-02-21T03:12:37;101666.06;;;9.00;100.00
64298;BME280;50639;53.270;7.956;2024-02-21T03:15:03;101661.94;;;8.96;100.00
64298;BME280;50639;53.270;7.956;2024-02-21T03:17:30;101655.72;;;9.00;100.00
64298;BME280;50639;53.270;7.956;2024-02-21T03:19:55;101654.72;;;9.04;100.00
64298;BME280;50639;53.270;7.956;2024-02-21T03:22:21;101662.59;;;9.01;100.00
64298;BME280;50639;53.270;7.956;2024-02-21T03:24:47;101661.69;;;9.02;100.00
64298;BME280;50639;53.270;7.956;2024-02-21T03:27:12;101638.84;;;8.91;100.00
64298;BME280;50639;53.270;7.956;2024-02-21T03:29:38;101653.34;;;8.95;100.00
64298;BME280;50639;53.270;7.956;2024-02-21T03:32:03;101658.56;;;8.94;100.00
64298;BME280;50639;53.270;7.956;2024-02-21T03:34:29;101659.34;;;8.96;100.00
64298;BME280;50639;53.270;7.956;2024-02-21T03:36:54;101647.06;;;9.01;100.00
64298;BME280;50639;53.270;7.956;2024-02-21T03:39:20;101635.38;;;8.92;100.00
64298;BME280;50639;53.270;7.956;2024-02-21T03:41:46;101651.78;;;8.91;100.00
64298;BME280;50639;53.270;7.956;2024-02-21T03:44:12;101646.59;;;8.91;100.00
64298;BME280;50639;53.270;7.956;2024-02-21T03:46:37;101646.03;;;8.85;100.00
64298;BME280;50639;53.270;7.956;2024-02-21T03:49:03;101632.00;;;8.90;100.00
64298;BME280;50639;53.270;7.956;2024-02-21T03:51:28;101632.00;;;8.90;100.00
64298;BME280;50639;53.270;7.956;2024-02-21T03:53:53;101633.69;;;8.91;100.00
64298;BME280;50639;53.270;7.956;2024-02-21T03:56:19;101636.22;;;8.93;100.00
64298;BME280;50639;53.270;7.956;2024-02-21T03:58:44;101640.38;;;8.97;100.00
64298;BME280;50639;53.270;7.956;2024-02-21T04:01:10;101652.50;;;8.95;100.00
64298;BME280;50639;53.270;7.956;2024-02-21T04:03:35;101648.28;;;8.92;100.00
64298;BME280;50639;53.270;7.956;2024-02-21T04:06:01;101653.66;;;8.88;100.00
64298;BME280;50639;53.270;7.956;2024-02-21T04:08:26;101644.53;;;8.79;100.00
64298;BME280;50639;53.270;7.956;2024-02-21T04:10:52;101646.66;;;8.90;100.00
64298;BME280;50639;53.270;7.956;2024-02-21T04:13:17;101645.97;;;8.86;100.00
64298;BME280;50639;53.270;7.956;2024-02-21T04:15:43;101640.59;;;8.91;100.00
64298;BME280;50639;53.270;7.956;2024-02-21T04:18:08;101633.81;;;8.88;100.00
64298;BME280;50639;53.270;7.956;2024-02-21T04:20:34;101648.22;;;8.94;100.00
64298;BME280;50639;53.270;7.956;2024-02-21T04:23:00;101637.00;;;8.95;100.00
64298;BME280;50639;53.270;7.956;2024-02-21T04:25:25;101635.13;;;8.98;100.00
64298;BME280;50639;53.270;7.956;2024-02-21T04:27:51;101634.53;;;8.92;100.00
64298;BME280;50639;53.270;7.956;2024-02-21T04:30:17;101629.25;;;8.95;100.00
64298;BME280;50639;53.270;7.956;2024-02-21T04:32:43;101631.88;;;8.93;100.00
64298;BME280;50639;53.270;7.956;2024-02-21T04:35:08;101626.06;;;8.88;100.00
64298;BME280;50639;53.270;7.956;2024-02-21T04:37:34;101626.66;;;8.95;100.00
64298;BME280;50639;53.270;7.956;2024-02-21T04:39:59;101631.94;;;8.92;100.00
64298;BME280;50639;53.270;7.956;2024-02-21T04:42:25;101631.78;;;8.96;100.00
64298;BME280;50639;53.270;7.956;2024-02-21T04:44:50;101640.16;;;9.01;100.00
64298;BME280;50639;53.270;7.956;2024-02-21T04:47:16;101640.38;;;8.97;100.00
64298;BME280;50639;53.270;7.956;2024-02-21T04:49:41;101642.81;;;9.00;100.00
64298;BME280;50639;53.270;7.956;2024-02-21T04:52:06;101647.28;;;8.96;100.00
64298;BME280;50639;53.270;7.956;2024-02-21T04:54:32;101632.63;;;8.97;100.00
64298;BME280;50639;53.270;7.956;2024-02-21T04:56:58;101644.50;;;9.01;100.00
64298;BME280;50639;53.270;7.956;2024-02-21T04:59:23;101635.13;;;8.98;100.00
64298;BME280;50639;53.270;7.956;2024-02-21T05:01:48;101629.41;;;8.90;100.00
64298;BME280;50639;53.270;7.956;2024-02-21T05:04:14;101619.81;;;8.94;100.00
64298;BME280;50639;53.270;7.956;2024-02-21T05:06:40;101618.97;;;8.93;100.00
64298;BME280;50639;53.270;7.956;2024-02-21T05:09:07;101619.69;;;8.97;100.00
64298;BME280;50639;53.270;7.956;2024-02-21T05:11:33;101612.00;;;8.95;100.00
64298;BME280;50639;53.270;7.956;2024-02-21T05:13:59;101620.72;;;8.93;100.00
64298;BME280;50639;53.270;7.956;2024-02-21T05:16:24;101612.00;;;8.95;100.00
64298;BME280;50639;53.270;7.956;2024-02-21T05:18:50;101612.19;;;8.91;100.00
64298;BME280;50639;53.270;7.956;2024-02-21T05:21:15;101615.56;;;8.93;100.00
64298;BME280;50639;53.270;7.956;2024-02-21T05:23:40;101618.44;;;8.85;100.00
64298;BME280;50639;53.270;7.956;2024-02-21T05:26:06;101608.75;;;8.90;100.00
64298;BME280;50639;53.270;7.956;2024-02-21T05:28:32;101611.34;;;8.90;100.00
64298;BME280;50639;53.270;7.956;2024-02-21T05:30:57;101603.78;;;8.86;100.00
64298;BME280;50639;53.270;7.956;2024-02-21T05:33:24;101598.41;;;8.90;100.00
64298;BME280;50639;53.270;7.956;2024-02-21T05:35:50;101603.53;;;8.92;100.00
64298;BME280;50639;53.270;7.956;2024-02-21T05:38:15;101596.69;;;8.91;100.00
64298;BME280;50639;53.270;7.956;2024-02-21T05:40:41;101589.72;;;8.93;100.00
64298;BME280;50639;53.270;7.956;2024-02-21T05:43:09;101595.00;;;8.90;100.00
64298;BME280;50639;53.270;7.956;2024-02-21T05:45:35;101591.44;;;8.92;100.00
64298;BME280;50639;53.270;7.956;2024-02-21T05:48:01;101595.13;;;8.87;100.00
64298;BME280;50639;53.270;7.956;2024-02-21T05:50:28;101586.22;;;8.94;100.00
64298;BME280;50639;53.270;7.956;2024-02-21T05:52:56;101586.16;;;8.95;100.00
64298;BME280;50639;53.270;7.956;2024-02-21T05:55:22;101591.91;;;9.02;100.00
64298;BME280;50639;53.270;7.956;2024-02-21T05:57:48;101580.69;;;9.03;100.00
64298;BME280;50639;53.270;7.956;2024-02-21T06:00:14;101595.34;;;9.02;100.00
64298;BME280;50639;53.270;7.956;2024-02-21T06:02:41;101594.56;;;9.00;100.00
64298;BME280;50639;53.270;7.956;2024-02-21T06:05:07;101584.16;;;9.02;100.00
64298;BME280;50639;53.270;7.956;2024-02-21T06:07:33;101586.88;;;8.99;100.00
64298;BME280;50639;53.270;7.956;2024-02-21T06:10:00;101583.31;;;9.01;100.00
64298;BME280;50639;53.270;7.956;2024-02-21T06:12:25;101584.06;;;9.05;100.00
64298;BME280;50639;53.270;7.956;2024-02-21T06:14:51;101586.88;;;8.99;100.00
64298;BME280;50639;53.270;7.956;2024-02-21T06:17:17;101591.44;;;8.92;100.00
64298;BME280;50639;53.270;7.956;2024-02-21T06:19:43;101587.06;;;8.94;100.00
64298;BME280;50639;53.270;7.956;2024-02-21T06:22:09;101586.13;;;8.97;100.00
64298;BME280;50639;53.270;7.956;2024-02-21T06:24:35;101591.97;;;9.00;100.00
64298;BME280;50639;53.270;7.956;2024-02-21T06:27:02;101592.88;;;8.99;100.00
64298;BME280;50639;53.270;7.956;2024-02-21T06:29:28;101590.13;;;9.04;100.00
64298;BME280;50639;53.270;7.956;2024-02-21T06:31:53;101584.44;;;8.96;100.00
64298;BME280;50639;53.270;7.956;2024-02-21T06:34:19;101580.84;;;8.98;100.00
64298;BME280;50639;53.270;7.956;2024-02-21T06:36:45;101579.97;;;8.99;100.00
64298;BME280;50639;53.270;7.956;2024-02-21T06:39:10;101568.59;;;9.03;100.00
64298;BME280;50639;53.270;7.956;2024-02-21T06:41:37;101570.34;;;9.03;100.00
64298;BME280;50639;53.270;7.956;2024-02-21T06:44:03;101565.28;;;9.00;100.00
64298;BME280;50639;53.270;7.956;2024-02-21T06:46:29;101563.44;;;9.03;100.00
64298;BME280;50639;53.270;7.956;2024-02-21T06:48:55;101569.28;;;9.07;100.00
64298;BME280;50639;53.270;7.956;2024-02-21T06:51:25;101563.16;;;9.10;100.00
64298;BME280;50639;53.270;7.956;2024-02-21T06:53:50;101564.84;;;9.11;100.00
64298;BME280;50639;53.270;7.956;2024-02-21T06:56:16;101567.38;;;9.12;100.00
64298;BME280;50639;53.270;7.956;2024-02-21T06:58:42;101563.94;;;9.12;100.00
64298;BME280;50639;53.270;7.956;2024-02-21T07:01:08;101562.06;;;9.15;100.00
64298;BME280;50639;53.270;7.956;2024-02-21T07:03:36;101563.84;;;9.15;100.00
64298;BME280;50639;53.270;7.956;2024-02-21T07:06:02;101563.94;;;9.12;100.00
64298;BME280;50639;53.270;7.956;2024-02-21T07:08:28;101562.22;;;9.12;100.00
64298;BME280;50639;53.270;7.956;2024-02-21T07:10:54;101566.41;;;9.15;100.00
64298;BME280;50639;53.270;7.956;2024-02-21T07:13:19;101566.47;;;9.13;100.00
64298;BME280;50639;53.270;7.956;2024-02-21T07:15:45;101570.66;;;9.16;100.00
64298;BME280;50639;53.270;7.956;2024-02-21T07:18:11;101558.72;;;9.13;100.00
64298;BME280;50639;53.270;7.956;2024-02-21T07:20:36;101579.34;;;9.15;100.00
64298;BME280;50639;53.270;7.956;2024-02-21T07:23:03;101568.34;;;9.10;100.00
64298;BME280;50639;53.270;7.956;2024-02-21T07:25:28;101576.28;;;9.05;100.00
64298;BME280;50639;53.270;7.956;2024-02-21T07:27:54;101570.09;;;9.09;100.00
64298;BME280;50639;53.270;7.956;2024-02-21T07:30:19;101578.72;;;9.08;100.00
64298;BME280;50639;53.270;7.956;2024-02-21T07:32:45;101576.88;;;9.12;100.00
64298;BME280;50639;53.270;7.956;2024-02-21T07:35:10;101568.28;;;9.11;100.00
64298;BME280;50639;53.270;7.956;2024-02-21T07:37:37;101564.06;;;9.09;100.00
64298;BME280;50639;53.270;7.956;2024-02-21T07:40:06;101570.91;;;9.10;100.00
64298;BME280;50639;53.270;7.956;2024-02-21T07:42:32;101568.47;;;9.06;100.00
64298;BME280;50639;53.270;7.956;2024-02-21T07:44:57;101564.00;;;9.10;100.00
64298;BME280;50639;53.270;7.956;2024-02-21T07:47:22;101558.78;;;9.12;100.00
64298;BME280;50639;53.270;7.956;2024-02-21T07:49:48;101561.38;;;9.12;100.00
64298;BME280;50639;53.270;7.956;2024-02-21T07:52:14;101560.31;;;9.16;100.00
64298;BME280;50639;53.270;7.956;2024-02-21T07:54:41;101557.22;;;9.07;100.00
64298;BME280;50639;53.270;7.956;2024-02-21T07:57:09;101557.81;;;9.14;100.00
64298;BME280;50639;53.270;7.956;2024-02-21T07:59:35;101556.09;;;9.15;100.00
64298;BME280;50639;53.270;7.956;2024-02-21T08:02:00;101555.09;;;9.17;100.00
64298;BME280;50639;53.270;7.956;2024-02-21T08:04:26;101552.50;;;9.17;100.00
64298;BME280;50639;53.270;7.956;2024-02-21T08:06:52;101545.66;;;9.16;100.00
64298;BME280;50639;53.270;7.956;2024-02-21T08:09:18;101546.44;;;9.18;100.00
64298;BME280;50639;53.270;7.956;2024-02-21T08:11:44;101536.16;;;9.17;100.00
64298;BME280;50639;53.270;7.956;2024-02-21T08:14:10;101536.38;;;9.12;100.00
64298;BME280;50639;53.270;7.956;2024-02-21T08:16:35;101534.41;;;9.17;100.00
64298;BME280;50639;53.270;7.956;2024-02-21T08:19:01;101539.47;;;9.20;100.00
64298;BME280;50639;53.270;7.956;2024-02-21T08:21:28;101532.50;;;9.22;100.00
64298;BME280;50639;53.270;7.956;2024-02-21T08:23:54;101538.56;;;9.21;100.00
64298;BME280;50639;53.270;7.956;2024-02-21T08:26:20;101535.75;;;9.26;100.00
64298;BME280;50639;53.270;7.956;2024-02-21T08:28:45;101537.16;;;9.33;100.00
64298;BME280;50639;53.270;7.956;2024-02-21T08:31:11;101530.34;;;9.32;100.00
64298;BME280;50639;53.270;7.956;2024-02-21T08:33:36;101522.66;;;9.30;100.00
64298;BME280;50639;53.270;7.956;2024-02-21T08:36:02;101523.00;;;9.23;100.00
64298;BME280;50639;53.270;7.956;2024-02-21T08:38:28;101520.13;;;9.29;100.00
64298;BME280;50639;53.270;7.956;2024-02-21T08:40:53;101509.66;;;9.32;100.00
64298;BME280;50639;53.270;7.956;2024-02-21T08:43:19;101507.63;;;9.38;100.00
64298;BME280;50639;53.270;7.956;2024-02-21T08:45:44;101507.56;;;9.40;100.00
64298;BME280;50639;53.270;7.956;2024-02-21T08:48:10;101509.44;;;9.36;100.00
64298;BME280;50639;53.270;7.956;2024-02-21T08:50:35;101508.03;;;9.29;100.00
64298;BME280;50639;53.270;7.956;2024-02-21T08:53:01;101500.72;;;9.39;100.00
64298;BME280;50639;53.270;7.956;2024-02-21T08:55:27;101498.81;;;9.42;100.00
64298;BME280;50639;53.270;7.956;2024-02-21T08:57:52;101500.31;;;9.48;100.00
64298;BME280;50639;53.270;7.956;2024-02-21T09:00:18;101494.91;;;9.53;100.00
64298;BME280;50639;53.270;7.956;2024-02-21T09:02:46;101500.09;;;9.53;100.00
64298;BME280;50639;53.270;7.956;2024-02-21T09:05:12;101487.56;;;9.43;100.00
64298;BME280;50639;53.270;7.956;2024-02-21T09:07:37;101495.06;;;9.50;100.00
64298;BME280;50639;53.270;7.956;2024-02-21T09:10:03;101481.22;;;9.51;100.00
64298;BME280;50639;53.270;7.956;2024-02-21T09:12:29;101484.56;;;9.53;100.00
64298;BME280;50639;53.270;7.956;2024-02-21T09:14:55;101487.59;;;9.62;100.00
64298;BME280;50639;53.270;7.956;2024-02-21T09:17:20;101486.88;;;9.59;100.00
64298;BME280;50639;53.270;7.956;2024-02-21T09:19:49;101484.63;;;9.51;100.00
64298;BME280;50639;53.270;7.956;2024-02-21T09:22:14;101486.13;;;9.57;100.00
64298;BME280;50639;53.270;7.956;2024-02-21T09:24:40;101490.47;;;9.56;100.00
64298;BME280;50639;53.270;7.956;2024-02-21T09:27:05;101483.53;;;9.57;100.00
64298;BME280;50639;53.270;7.956;2024-02-21T09:29:31;101478.06;;;9.44;100.00
64298;BME280;50639;53.270;7.956;2024-02-21T09:31:59;101486.38;;;9.51;100.00
64298;BME280;50639;53.270;7.956;2024-02-21T09:34:24;101469.63;;;9.40;100.00
64298;BME280;50639;53.270;7.956;2024-02-21T09:36:50;101477.22;;;9.43;100.00
64298;BME280;50639;53.270;7.956;2024-02-21T09:39:15;101472.97;;;9.42;100.00
64298;BME280;50639;53.270;7.956;2024-02-21T09:41:49;101468.50;;;9.46;100.00
64298;BME280;50639;53.270;7.956;2024-02-21T09:44:19;101464.97;;;9.49;100.00
64298;BME280;50639;53.270;7.956;2024-02-21T09:46:52;101460.75;;;9.46;100.00
64298;BME280;50639;53.270;7.956;2024-02-21T09:51:47;101454.19;;;9.39;100.00
64298;BME280;50639;53.270;7.956;2024-02-21T09:54:14;101456.97;;;9.34;100.00
64298;BME280;50639;53.270;7.956;2024-02-21T09:56:41;101451.66;;;9.37;100.00
64298;BME280;50639;53.270;7.956;2024-02-21T09:59:07;101449.09;;;9.37;99.97
64298;BME280;50639;53.270;7.956;2024-02-21T10:01:33;101450.88;;;9.35;100.00
64298;BME280;50639;53.270;7.956;2024-02-21T10:03:58;101444.09;;;9.33;100.00
64298;BME280;50639;53.270;7.956;2024-02-21T10:06:23;101435.31;;;9.37;99.99
64298;BME280;50639;53.270;7.956;2024-02-21T10:08:53;101434.47;;;9.36;100.00
64298;BME280;50639;53.270;7.956;2024-02-21T10:11:25;101426.44;;;9.42;99.33
64298;BME280;50639;53.270;7.956;2024-02-21T10:13:51;101429.78;;;9.44;99.26
64298;BME280;50639;53.270;7.956;2024-02-21T10:16:27;101422.94;;;9.43;98.59
64298;BME280;50639;53.270;7.956;2024-02-21T10:18:54;101419.03;;;9.54;98.83
64298;BME280;50639;53.270;7.956;2024-02-21T10:21:20;101417.41;;;9.51;98.94
64298;BME280;50639;53.270;7.956;2024-02-21T10:23:49;101405.19;;;9.55;98.70
64298;BME280;50639;53.270;7.956;2024-02-21T10:26:19;101412.41;;;9.48;98.30
64298;BME280;50639;53.270;7.956;2024-02-21T10:28:46;101406.59;;;9.43;98.40
64298;BME280;50639;53.270;7.956;2024-02-21T10:31:24;101406.81;;;9.38;98.79
64298;BME280;50639;53.270;7.956;2024-02-21T10:34:02;101399.97;;;9.37;98.87
64298;BME280;50639;53.270;7.956;2024-02-21T10:36:30;101407.59;;;9.40;98.64
64298;BME280;50639;53.270;7.956;2024-02-21T10:38:56;101398.69;;;9.46;99.21
64298;BME280;50639;53.270;7.956;2024-02-21T10:41:23;101393.28;;;9.51;98.86
64298;BME280;50639;53.270;7.956;2024-02-21T10:43:53;101392.56;;;9.49;97.79
64298;BME280;50639;53.270;7.956;2024-02-21T10:46:21;101386.25;;;9.54;97.67
64298;BME280;50639;53.270;7.956;2024-02-21T10:48:48;101376.31;;;9.64;96.76
64298;BME280;50639;53.270;7.956;2024-02-21T10:51:23;101372.66;;;9.68;96.15
64298;BME280;50639;53.270;7.956;2024-02-21T10:56:41;101371.22;;;9.79;95.80
64298;BME280;50639;53.270;7.956;2024-02-21T10:59:07;101378.09;;;9.80;95.17
64298;BME280;50639;53.270;7.956;2024-02-21T11:01:33;101365.16;;;9.80;95.20
64298;BME280;50639;53.270;7.956;2024-02-21T11:04:07;101353.91;;;9.81;95.07
64298;BME280;50639;53.270;7.956;2024-02-21T11:06:35;101343.88;;;9.93;94.77
64298;BME280;50639;53.270;7.956;2024-02-21T11:09:05;101341.81;;;9.99;94.78
64298;BME280;50639;53.270;7.956;2024-02-21T11:11:39;101335.09;;;10.12;94.76
64298;BME280;50639;53.270;7.956;2024-02-21T11:16:39;101322.56;;;10.22;93.26
64298;BME280;50639;53.270;7.956;2024-02-21T11:19:08;101316.06;;;10.31;92.90
64298;BME280;50639;53.270;7.956;2024-02-21T11:21:36;101307.00;;;10.39;91.85
64298;BME280;50639;53.270;7.956;2024-02-21T11:24:03;101320.13;;;10.36;91.37
64298;BME280;50639;53.270;7.956;2024-02-21T11:26:30;101306.69;;;10.45;91.38
64298;BME280;50639;53.270;7.956;2024-02-21T11:28:58;101304.63;;;10.52;91.40
64298;BME280;50639;53.270;7.956;2024-02-21T11:31:25;101305.47;;;10.68;90.52
64298;BME280;50639;53.270;7.956;2024-02-21T11:33:53;101304.13;;;10.61;89.54
64298;BME280;50639;53.270;7.956;2024-02-21T11:36:27;101301.06;;;10.70;89.26
64298;BME280;50639;53.270;7.956;2024-02-21T11:38:53;101294.63;;;10.77;89.10
64298;BME280;50639;53.270;7.956;2024-02-21T11:41:19;101286.59;;;10.82;88.82
64298;BME280;50639;53.270;7.956;2024-02-21T11:43:48;101276.22;;;10.82;88.36
64298;BME280;50639;53.270;7.956;2024-02-21T11:46:13;101274.88;;;10.75;87.74
64298;BME280;50639;53.270;7.956;2024-02-21T11:48:41;101264.44;;;10.76;87.82
64298;BME280;50639;53.270;7.956;2024-02-21T11:51:06;101262.34;;;10.83;87.79
64298;BME280;50639;53.270;7.956;2024-02-21T11:53:32;101263.03;;;10.86;87.89
64298;BME280;50639;53.270;7.956;2024-02-21T11:56:01;101259.38;;;10.90;87.26
64298;BME280;50639;53.270;7.956;2024-02-21T11:58:26;101251.25;;;10.97;86.38
64298;BME280;50639;53.270;7.956;2024-02-21T12:00:52;101251.41;;;10.93;86.00
64298;BME280;50639;53.270;7.956;2024-02-21T12:03:17;101233.69;;;10.86;85.92
64298;BME280;50639;53.270;7.956;2024-02-21T12:05:43;101229.69;;;10.96;85.78
64298;BME280;50639;53.270;7.956;2024-02-21T12:08:09;101221.63;;;11.01;85.68
64298;BME280;50639;53.270;7.956;2024-02-21T12:10:35;101227.34;;;10.91;85.55
64298;BME280;50639;53.270;7.956;2024-02-21T12:13:10;101213.66;;;10.89;85.16
64298;BME280;50639;53.270;7.956;2024-02-21T12:15:38;101214.06;;;10.98;86.12
64298;BME280;50639;53.270;7.956;2024-02-21T12:18:04;101220.28;;;11.09;86.50
64298;BME280;50639;53.270;7.956;2024-02-21T12:20:30;101199.06;;;11.03;85.85
64298;BME280;50639;53.270;7.956;2024-02-21T12:23:00;101202.78;;;10.99;85.10
64298;BME280;50639;53.270;7.956;2024-02-21T12:25:25;101193.25;;;10.99;84.12
64298;BME280;50639;53.270;7.956;2024-02-21T12:27:54;101193.88;;;11.03;84.60
64298;BME280;50639;53.270;7.956;2024-02-21T12:30:20;101185.88;;;11.07;84.56
64298;BME280;50639;53.270;7.956;2024-02-21T12:32:46;101178.84;;;10.93;84.42
64298;BME280;50639;53.270;7.956;2024-02-21T12:35:14;101173.91;;;11.05;84.43
64298;BME280;50639;53.270;7.956;2024-02-21T12:37:40;101173.22;;;11.01;84.23
64298;BME280;50639;53.270;7.956;2024-02-21T12:40:08;101156.84;;;11.01;83.46
64298;BME280;50639;53.270;7.956;2024-02-21T12:42:34;101152.50;;;11.01;84.09
64298;BME280;50639;53.270;7.956;2024-02-21T12:45:00;101143.72;;;11.04;83.47
64298;BME280;50639;53.270;7.956;2024-02-21T12:47:25;101140.97;;;11.07;83.80
64298;BME280;50639;53.270;7.956;2024-02-21T12:49:55;101136.09;;;11.01;84.53
64298;BME280;50639;53.270;7.956;2024-02-21T12:52:21;101116.56;;;10.95;85.12
64298;BME280;50639;53.270;7.956;2024-02-21T12:54:46;101111.66;;;10.90;84.93
64298;BME280;50639;53.270;7.956;2024-02-21T12:57:12;101109.47;;;10.83;85.13